MMSD/SJD METAR and TAF weather

Enter ICAO airport designator
Station Type Date Time Source
MMSD METAR 2020/01/21 14:50 UTC NOAA

MMSD 211450Z 00000KT 12SM SKC 13/08 A3011 RMK SLP184 5//// 905


Station Type Date Time Source
MMSD Decoded METAR 2020/01/21 14:50 UTC NOAA

San Jose Del Cabo , Mexico (MMSD) 23-09N 109-42W
Jan 21, 2020 - 09:50 AM EST / 2020.01.21 1450 UTC
Wind: Calm:0
Visibility: 12 mile(s):0
Sky conditions: clear
Temperature: 55 F (13 C)
Dew Point: 46 F (8 C)
Relative Humidity: 71%
Pressure (altimeter): 30.11 in. Hg (1019 hPa)
ob: MMSD 211450Z 00000KT 12SM SKC 13/08 A3011 RMK SLP184 5//// 905
cycle: 15

Station Type Date Time Source
MMSD TAF 2020/01/21 06:12 UTC NOAA

TAF MMSD 210508Z 2106/2206 29004KT P6SM SKC
FM211800 13010KT P6SM SCT220
BECMG 2203/2205 36006KT BKN220

Example: see airport list